sensor_id;sensor_type;location;lat;lon;timestamp;P1;durP1;ratioP1;P2;durP2;ratioP2
60078;SDS011;45951;45.824;8.824;2022-07-06T00:02:25;2.50;;;2.30;;
60078;SDS011;45951;45.824;8.824;2022-07-06T00:08:26;6.33;;;2.30;;
60078;SDS011;45951;45.824;8.824;2022-07-06T00:14:26;3.63;;;2.28;;
60078;SDS011;45951;45.824;8.824;2022-07-06T00:20:27;3.27;;;2.20;;
60078;SDS011;45951;45.824;8.824;2022-07-06T00:26:27;3.17;;;2.10;;
60078;SDS011;45951;45.824;8.824;2022-07-06T00:32:28;3.38;;;2.13;;
60078;SDS011;45951;45.824;8.824;2022-07-06T00:38:28;2.53;;;2.13;;
60078;SDS011;45951;45.824;8.824;2022-07-06T00:44:29;3.13;;;2.20;;
60078;SDS011;45951;45.824;8.824;2022-07-06T00:50:29;2.47;;;2.17;;
60078;SDS011;45951;45.824;8.824;2022-07-06T00:56:31;2.90;;;2.20;;
60078;SDS011;45951;45.824;8.824;2022-07-06T01:02:32;2.78;;;2.00;;
60078;SDS011;45951;45.824;8.824;2022-07-06T01:08:33;2.58;;;2.10;;
60078;SDS011;45951;45.824;8.824;2022-07-06T01:14:33;3.57;;;2.17;;
60078;SDS011;45951;45.824;8.824;2022-07-06T01:20:34;3.75;;;2.50;;
60078;SDS011;45951;45.824;8.824;2022-07-06T01:26:35;3.05;;;2.40;;
60078;SDS011;45951;45.824;8.824;2022-07-06T01:32:36;2.47;;;2.17;;
60078;SDS011;45951;45.824;8.824;2022-07-06T01:38:50;3.72;;;2.45;;
60078;SDS011;45951;45.824;8.824;2022-07-06T01:44:51;3.92;;;2.42;;
60078;SDS011;45951;45.824;8.824;2022-07-06T01:50:52;3.23;;;2.30;;
60078;SDS011;45951;45.824;8.824;2022-07-06T01:56:52;2.53;;;2.28;;
60078;SDS011;45951;45.824;8.824;2022-07-06T02:02:52;3.05;;;2.50;;
60078;SDS011;45951;45.824;8.824;2022-07-06T02:08:53;3.58;;;2.40;;
60078;SDS011;45951;45.824;8.824;2022-07-06T02:14:54;2.92;;;2.17;;
60078;SDS011;45951;45.824;8.824;2022-07-06T02:20:54;2.40;;;2.20;;
60078;SDS011;45951;45.824;8.824;2022-07-06T02:26:54;5.50;;;2.57;;
60078;SDS011;45951;45.824;8.824;2022-07-06T02:32:55;3.15;;;2.20;;
60078;SDS011;45951;45.824;8.824;2022-07-06T02:38:55;3.65;;;2.25;;
60078;SDS011;45951;45.824;8.824;2022-07-06T02:44:55;4.45;;;2.50;;
60078;SDS011;45951;45.824;8.824;2022-07-06T02:50:56;3.87;;;2.10;;
60078;SDS011;45951;45.824;8.824;2022-07-06T02:56:56;4.50;;;2.60;;
60078;SDS011;45951;45.824;8.824;2022-07-06T03:02:56;4.78;;;2.72;;
60078;SDS011;45951;45.824;8.824;2022-07-06T03:08:57;3.97;;;2.47;;
60078;SDS011;45951;45.824;8.824;2022-07-06T03:14:57;3.35;;;2.20;;
60078;SDS011;45951;45.824;8.824;2022-07-06T03:20:57;3.28;;;2.60;;
60078;SDS011;45951;45.824;8.824;2022-07-06T03:26:58;3.17;;;2.50;;
60078;SDS011;45951;45.824;8.824;2022-07-06T03:32:58;2.45;;;2.20;;
60078;SDS011;45951;45.824;8.824;2022-07-06T03:38:59;2.58;;;2.35;;
60078;SDS011;45951;45.824;8.824;2022-07-06T03:44:59;2.67;;;2.30;;
60078;SDS011;45951;45.824;8.824;2022-07-06T03:50:59;3.03;;;2.20;;
60078;SDS011;45951;45.824;8.824;2022-07-06T03:57:00;2.97;;;2.20;;
60078;SDS011;45951;45.824;8.824;2022-07-06T04:03:00;3.95;;;2.08;;
60078;SDS011;45951;45.824;8.824;2022-07-06T04:09:01;3.03;;;2.22;;
60078;SDS011;45951;45.824;8.824;2022-07-06T04:15:02;3.28;;;2.30;;
60078;SDS011;45951;45.824;8.824;2022-07-06T04:21:02;2.30;;;2.10;;
60078;SDS011;45951;45.824;8.824;2022-07-06T04:27:03;2.45;;;2.10;;
60078;SDS011;45951;45.824;8.824;2022-07-06T04:33:03;3.07;;;2.23;;
60078;SDS011;45951;45.824;8.824;2022-07-06T04:39:04;3.47;;;2.53;;
60078;SDS011;45951;45.824;8.824;2022-07-06T04:45:04;2.45;;;2.13;;
60078;SDS011;45951;45.824;8.824;2022-07-06T04:51:05;2.70;;;2.30;;
60078;SDS011;45951;45.824;8.824;2022-07-06T04:57:06;3.03;;;2.30;;
60078;SDS011;45951;45.824;8.824;2022-07-06T05:03:06;2.93;;;2.30;;
60078;SDS011;45951;45.824;8.824;2022-07-06T05:09:07;3.10;;;2.38;;
60078;SDS011;45951;45.824;8.824;2022-07-06T05:15:07;4.30;;;3.10;;
60078;SDS011;45951;45.824;8.824;2022-07-06T05:21:08;3.42;;;3.00;;
60078;SDS011;45951;45.824;8.824;2022-07-06T05:27:09;3.97;;;3.03;;
60078;SDS011;45951;45.824;8.824;2022-07-06T05:33:09;3.60;;;3.08;;
60078;SDS011;45951;45.824;8.824;2022-07-06T05:39:09;4.18;;;2.90;;
60078;SDS011;45951;45.824;8.824;2022-07-06T05:45:10;4.43;;;2.80;;
60078;SDS011;45951;45.824;8.824;2022-07-06T05:51:10;2.50;;;2.30;;
60078;SDS011;45951;45.824;8.824;2022-07-06T05:57:10;2.78;;;2.45;;
60078;SDS011;45951;45.824;8.824;2022-07-06T06:03:11;3.50;;;2.47;;
60078;SDS011;45951;45.824;8.824;2022-07-06T06:09:11;3.95;;;3.00;;
60078;SDS011;45951;45.824;8.824;2022-07-06T06:15:11;3.50;;;2.83;;
60078;SDS011;45951;45.824;8.824;2022-07-06T06:21:12;3.10;;;2.80;;
60078;SDS011;45951;45.824;8.824;2022-07-06T06:27:12;3.85;;;3.00;;
60078;SDS011;45951;45.824;8.824;2022-07-06T06:39:17;4.05;;;3.53;;
60078;SDS011;45951;45.824;8.824;2022-07-06T06:45:17;4.38;;;3.50;;
60078;SDS011;45951;45.824;8.824;2022-07-06T06:51:17;3.50;;;3.15;;
60078;SDS011;45951;45.824;8.824;2022-07-06T06:57:18;4.07;;;3.17;;
60078;SDS011;45951;45.824;8.824;2022-07-06T07:03:18;3.75;;;3.45;;
60078;SDS011;45951;45.824;8.824;2022-07-06T07:09:18;3.47;;;3.00;;
60078;SDS011;45951;45.824;8.824;2022-07-06T07:15:18;4.72;;;3.33;;
60078;SDS011;45951;45.824;8.824;2022-07-06T07:21:19;3.70;;;3.40;;
60078;SDS011;45951;45.824;8.824;2022-07-06T07:27:19;4.70;;;3.38;;
60078;SDS011;45951;45.824;8.824;2022-07-06T07:33:20;3.13;;;2.70;;
60078;SDS011;45951;45.824;8.824;2022-07-06T07:39:20;3.37;;;3.07;;
60078;SDS011;45951;45.824;8.824;2022-07-06T07:45:20;4.07;;;3.53;;
60078;SDS011;45951;45.824;8.824;2022-07-06T07:51:21;4.00;;;3.67;;
60078;SDS011;45951;45.824;8.824;2022-07-06T07:57:21;4.03;;;3.47;;
60078;SDS011;45951;45.824;8.824;2022-07-06T08:03:21;5.22;;;3.95;;
60078;SDS011;45951;45.824;8.824;2022-07-06T08:09:22;6.47;;;4.43;;
60078;SDS011;45951;45.824;8.824;2022-07-06T08:15:22;4.13;;;3.20;;
60078;SDS011;45951;45.824;8.824;2022-07-06T08:21:23;4.50;;;3.28;;
60078;SDS011;45951;45.824;8.824;2022-07-06T08:27:24;3.97;;;3.03;;
60078;SDS011;45951;45.824;8.824;2022-07-06T08:33:24;4.53;;;3.00;;
60078;SDS011;45951;45.824;8.824;2022-07-06T08:39:25;3.72;;;2.97;;
60078;SDS011;45951;45.824;8.824;2022-07-06T08:45:25;3.77;;;2.83;;
60078;SDS011;45951;45.824;8.824;2022-07-06T08:51:26;4.20;;;3.30;;
60078;SDS011;45951;45.824;8.824;2022-07-06T08:57:27;3.95;;;3.20;;
60078;SDS011;45951;45.824;8.824;2022-07-06T09:03:28;5.97;;;3.05;;
60078;SDS011;45951;45.824;8.824;2022-07-06T09:09:29;4.07;;;3.15;;
60078;SDS011;45951;45.824;8.824;2022-07-06T09:15:34;4.40;;;2.90;;
60078;SDS011;45951;45.824;8.824;2022-07-06T09:21:35;3.95;;;2.97;;
60078;SDS011;45951;45.824;8.824;2022-07-06T09:33:39;4.47;;;3.00;;
60078;SDS011;45951;45.824;8.824;2022-07-06T09:39:53;5.10;;;3.40;;
60078;SDS011;45951;45.824;8.824;2022-07-06T09:45:54;5.07;;;3.47;;
60078;SDS011;45951;45.824;8.824;2022-07-06T09:51:56;4.47;;;3.22;;
60078;SDS011;45951;45.824;8.824;2022-07-06T09:57:58;4.10;;;3.20;;
60078;SDS011;45951;45.824;8.824;2022-07-06T10:03:58;5.55;;;3.50;;
60078;SDS011;45951;45.824;8.824;2022-07-06T10:09:58;4.32;;;3.20;;
60078;SDS011;45951;45.824;8.824;2022-07-06T10:15:59;5.10;;;3.30;;
60078;SDS011;45951;45.824;8.824;2022-07-06T10:22:01;4.32;;;3.22;;
60078;SDS011;45951;45.824;8.824;2022-07-06T10:28:03;5.78;;;3.83;;
60078;SDS011;45951;45.824;8.824;2022-07-06T10:34:15;4.55;;;3.83;;
60078;SDS011;45951;45.824;8.824;2022-07-06T10:40:16;4.80;;;3.58;;
60078;SDS011;45951;45.824;8.824;2022-07-06T10:46:35;6.82;;;3.70;;
60078;SDS011;45951;45.824;8.824;2022-07-06T10:52:48;5.15;;;4.07;;
60078;SDS011;45951;45.824;8.824;2022-07-06T10:58:50;6.25;;;3.92;;
60078;SDS011;45951;45.824;8.824;2022-07-06T11:04:51;4.80;;;4.22;;
60078;SDS011;45951;45.824;8.824;2022-07-06T11:10:51;6.78;;;4.22;;
60078;SDS011;45951;45.824;8.824;2022-07-06T11:22:52;4.97;;;3.50;;
60078;SDS011;45951;45.824;8.824;2022-07-06T11:28:52;4.85;;;3.80;;
60078;SDS011;45951;45.824;8.824;2022-07-06T11:34:53;5.18;;;3.65;;
60078;SDS011;45951;45.824;8.824;2022-07-06T11:40:53;5.65;;;3.80;;
60078;SDS011;45951;45.824;8.824;2022-07-06T11:46:54;6.70;;;4.10;;
60078;SDS011;45951;45.824;8.824;2022-07-06T11:53:00;5.38;;;3.83;;
60078;SDS011;45951;45.824;8.824;2022-07-06T11:59:00;4.47;;;3.72;;
60078;SDS011;45951;45.824;8.824;2022-07-06T12:05:01;5.30;;;3.57;;
60078;SDS011;45951;45.824;8.824;2022-07-06T12:11:01;7.82;;;4.00;;
60078;SDS011;45951;45.824;8.824;2022-07-06T12:17:05;8.05;;;4.13;;
60078;SDS011;45951;45.824;8.824;2022-07-06T12:23:07;6.28;;;4.50;;
60078;SDS011;45951;45.824;8.824;2022-07-06T12:29:08;5.82;;;3.90;;
60078;SDS011;45951;45.824;8.824;2022-07-06T12:35:12;5.38;;;3.97;;
60078;SDS011;45951;45.824;8.824;2022-07-06T12:41:26;6.95;;;4.22;;
60078;SDS011;45951;45.824;8.824;2022-07-06T12:47:27;5.68;;;3.80;;
60078;SDS011;45951;45.824;8.824;2022-07-06T12:53:28;6.55;;;4.20;;
60078;SDS011;45951;45.824;8.824;2022-07-06T12:59:30;5.05;;;3.70;;
60078;SDS011;45951;45.824;8.824;2022-07-06T13:05:31;5.65;;;3.88;;
60078;SDS011;45951;45.824;8.824;2022-07-06T13:11:31;4.97;;;3.67;;
60078;SDS011;45951;45.824;8.824;2022-07-06T13:17:33;4.47;;;3.70;;
60078;SDS011;45951;45.824;8.824;2022-07-06T13:23:34;7.82;;;3.72;;
60078;SDS011;45951;45.824;8.824;2022-07-06T13:29:34;6.03;;;3.75;;
60078;SDS011;45951;45.824;8.824;2022-07-06T13:35:35;4.00;;;3.53;;
60078;SDS011;45951;45.824;8.824;2022-07-06T13:41:35;5.57;;;3.80;;
60078;SDS011;45951;45.824;8.824;2022-07-06T13:47:36;5.20;;;3.57;;
60078;SDS011;45951;45.824;8.824;2022-07-06T13:53:36;4.53;;;3.60;;
60078;SDS011;45951;45.824;8.824;2022-07-06T13:59:36;5.03;;;3.55;;
60078;SDS011;45951;45.824;8.824;2022-07-06T14:05:37;6.03;;;3.63;;
60078;SDS011;45951;45.824;8.824;2022-07-06T14:11:37;5.53;;;3.60;;
60078;SDS011;45951;45.824;8.824;2022-07-06T14:17:37;6.65;;;4.05;;
60078;SDS011;45951;45.824;8.824;2022-07-06T14:23:38;7.57;;;4.45;;
60078;SDS011;45951;45.824;8.824;2022-07-06T14:29:38;6.37;;;3.50;;
60078;SDS011;45951;45.824;8.824;2022-07-06T14:35:40;5.35;;;3.58;;
60078;SDS011;45951;45.824;8.824;2022-07-06T14:41:42;4.53;;;3.50;;
60078;SDS011;45951;45.824;8.824;2022-07-06T14:47:42;5.05;;;3.65;;
60078;SDS011;45951;45.824;8.824;2022-07-06T14:53:43;6.03;;;3.80;;
60078;SDS011;45951;45.824;8.824;2022-07-06T14:59:43;4.95;;;3.60;;
60078;SDS011;45951;45.824;8.824;2022-07-06T15:05:45;4.50;;;3.30;;
60078;SDS011;45951;45.824;8.824;2022-07-06T15:11:47;4.72;;;3.60;;
60078;SDS011;45951;45.824;8.824;2022-07-06T15:17:47;5.60;;;3.75;;
60078;SDS011;45951;45.824;8.824;2022-07-06T15:23:48;3.90;;;3.50;;
60078;SDS011;45951;45.824;8.824;2022-07-06T15:29:48;4.13;;;3.40;;
60078;SDS011;45951;45.824;8.824;2022-07-06T15:35:49;4.33;;;3.40;;
60078;SDS011;45951;45.824;8.824;2022-07-06T15:41:49;4.03;;;3.30;;
60078;SDS011;45951;45.824;8.824;2022-07-06T15:47:49;4.82;;;3.70;;
60078;SDS011;45951;45.824;8.824;2022-07-06T15:53:50;6.03;;;3.60;;
60078;SDS011;45951;45.824;8.824;2022-07-06T15:59:50;3.97;;;3.33;;
60078;SDS011;45951;45.824;8.824;2022-07-06T16:05:50;4.38;;;3.60;;
60078;SDS011;45951;45.824;8.824;2022-07-06T16:11:51;4.70;;;3.67;;
60078;SDS011;45951;45.824;8.824;2022-07-06T16:17:51;4.15;;;3.50;;
60078;SDS011;45951;45.824;8.824;2022-07-06T16:23:52;4.88;;;3.55;;
60078;SDS011;45951;45.824;8.824;2022-07-06T16:29:52;4.75;;;3.40;;
60078;SDS011;45951;45.824;8.824;2022-07-06T16:35:53;4.88;;;3.72;;
60078;SDS011;45951;45.824;8.824;2022-07-06T16:41:53;5.43;;;3.72;;
60078;SDS011;45951;45.824;8.824;2022-07-06T16:47:53;4.47;;;3.35;;
60078;SDS011;45951;45.824;8.824;2022-07-06T16:53:54;5.25;;;3.45;;
60078;SDS011;45951;45.824;8.824;2022-07-06T16:59:54;3.90;;;3.00;;
60078;SDS011;45951;45.824;8.824;2022-07-06T17:05:55;4.80;;;3.45;;
60078;SDS011;45951;45.824;8.824;2022-07-06T17:11:55;3.55;;;3.25;;
60078;SDS011;45951;45.824;8.824;2022-07-06T17:17:55;4.35;;;3.67;;
60078;SDS011;45951;45.824;8.824;2022-07-06T17:23:56;5.80;;;4.10;;
60078;SDS011;45951;45.824;8.824;2022-07-06T17:29:56;5.90;;;3.83;;
60078;SDS011;45951;45.824;8.824;2022-07-06T17:35:56;7.13;;;4.30;;
60078;SDS011;45951;45.824;8.824;2022-07-06T17:41:57;4.90;;;3.83;;
60078;SDS011;45951;45.824;8.824;2022-07-06T17:47:57;4.72;;;4.00;;
60078;SDS011;45951;45.824;8.824;2022-07-06T17:53:57;5.72;;;3.72;;
60078;SDS011;45951;45.824;8.824;2022-07-06T17:59:58;6.28;;;5.13;;
60078;SDS011;45951;45.824;8.824;2022-07-06T18:05:58;6.78;;;4.57;;
60078;SDS011;45951;45.824;8.824;2022-07-06T18:11:58;7.87;;;4.80;;
60078;SDS011;45951;45.824;8.824;2022-07-06T18:17:59;5.63;;;4.55;;
60078;SDS011;45951;45.824;8.824;2022-07-06T18:23:59;4.90;;;4.10;;
60078;SDS011;45951;45.824;8.824;2022-07-06T18:30:00;6.93;;;4.65;;
60078;SDS011;45951;45.824;8.824;2022-07-06T18:36:00;6.43;;;4.10;;
60078;SDS011;45951;45.824;8.824;2022-07-06T18:42:01;7.40;;;4.70;;
60078;SDS011;45951;45.824;8.824;2022-07-06T18:48:01;6.03;;;4.15;;
60078;SDS011;45951;45.824;8.824;2022-07-06T18:54:02;5.80;;;4.30;;
60078;SDS011;45951;45.824;8.824;2022-07-06T19:00:03;6.22;;;4.70;;
60078;SDS011;45951;45.824;8.824;2022-07-06T19:06:04;7.35;;;4.55;;
60078;SDS011;45951;45.824;8.824;2022-07-06T19:12:04;5.13;;;4.23;;
60078;SDS011;45951;45.824;8.824;2022-07-06T19:18:05;7.57;;;4.73;;
60078;SDS011;45951;45.824;8.824;2022-07-06T19:24:05;5.77;;;4.57;;
60078;SDS011;45951;45.824;8.824;2022-07-06T19:30:06;6.70;;;4.75;;
60078;SDS011;45951;45.824;8.824;2022-07-06T19:36:07;6.32;;;4.90;;
60078;SDS011;45951;45.824;8.824;2022-07-06T19:42:08;7.70;;;4.97;;
60078;SDS011;45951;45.824;8.824;2022-07-06T19:48:09;5.60;;;4.50;;
60078;SDS011;45951;45.824;8.824;2022-07-06T19:54:09;7.57;;;4.83;;
60078;SDS011;45951;45.824;8.824;2022-07-06T20:00:10;7.40;;;4.40;;
60078;SDS011;45951;45.824;8.824;2022-07-06T20:06:11;5.53;;;4.90;;
60078;SDS011;45951;45.824;8.824;2022-07-06T20:12:12;7.70;;;5.00;;
60078;SDS011;45951;45.824;8.824;2022-07-06T20:18:13;8.93;;;6.10;;
60078;SDS011;45951;45.824;8.824;2022-07-06T20:24:13;8.32;;;4.80;;
60078;SDS011;45951;45.824;8.824;2022-07-06T20:30:14;6.55;;;5.00;;
60078;SDS011;45951;45.824;8.824;2022-07-06T20:36:14;9.10;;;5.40;;
60078;SDS011;45951;45.824;8.824;2022-07-06T20:42:15;6.20;;;4.97;;
60078;SDS011;45951;45.824;8.824;2022-07-06T20:48:15;8.35;;;4.80;;
60078;SDS011;45951;45.824;8.824;2022-07-06T20:54:15;5.97;;;4.53;;
60078;SDS011;45951;45.824;8.824;2022-07-06T21:00:16;5.40;;;4.50;;
60078;SDS011;45951;45.824;8.824;2022-07-06T21:06:16;5.77;;;4.50;;
60078;SDS011;45951;45.824;8.824;2022-07-06T21:12:16;5.43;;;4.53;;
60078;SDS011;45951;45.824;8.824;2022-07-06T21:18:17;7.00;;;4.30;;
60078;SDS011;45951;45.824;8.824;2022-07-06T21:24:17;7.18;;;4.85;;
60078;SDS011;45951;45.824;8.824;2022-07-06T21:30:17;5.43;;;4.47;;
60078;SDS011;45951;45.824;8.824;2022-07-06T21:36:18;6.03;;;4.65;;
60078;SDS011;45951;45.824;8.824;2022-07-06T21:42:18;5.22;;;4.30;;
60078;SDS011;45951;45.824;8.824;2022-07-06T21:48:18;5.85;;;4.30;;
60078;SDS011;45951;45.824;8.824;2022-07-06T21:54:19;5.90;;;4.05;;
60078;SDS011;45951;45.824;8.824;2022-07-06T22:00:19;6.70;;;4.97;;
60078;SDS011;45951;45.824;8.824;2022-07-06T22:06:20;5.72;;;4.40;;
60078;SDS011;45951;45.824;8.824;2022-07-06T22:12:20;8.00;;;4.67;;
60078;SDS011;45951;45.824;8.824;2022-07-06T22:18:20;5.85;;;4.35;;
60078;SDS011;45951;45.824;8.824;2022-07-06T22:24:21;5.57;;;4.30;;
60078;SDS011;45951;45.824;8.824;2022-07-06T22:30:21;5.17;;;4.37;;
60078;SDS011;45951;45.824;8.824;2022-07-06T22:36:22;5.40;;;4.37;;
60078;SDS011;45951;45.824;8.824;2022-07-06T22:42:26;7.63;;;4.70;;
60078;SDS011;45951;45.824;8.824;2022-07-06T22:48:26;6.80;;;4.90;;
60078;SDS011;45951;45.824;8.824;2022-07-06T22:54:27;7.00;;;4.88;;
60078;SDS011;45951;45.824;8.824;2022-07-06T23:00:28;5.70;;;4.60;;
60078;SDS011;45951;45.824;8.824;2022-07-06T23:06:28;5.47;;;4.68;;
60078;SDS011;45951;45.824;8.824;2022-07-06T23:12:28;6.85;;;4.53;;
60078;SDS011;45951;45.824;8.824;2022-07-06T23:18:29;5.30;;;4.40;;
60078;SDS011;45951;45.824;8.824;2022-07-06T23:24:29;5.57;;;4.10;;
60078;SDS011;45951;45.824;8.824;2022-07-06T23:30:30;6.60;;;4.50;;
60078;SDS011;45951;45.824;8.824;2022-07-06T23:36:30;6.30;;;4.50;;
60078;SDS011;45951;45.824;8.824;2022-07-06T23:42:31;6.73;;;4.80;;
60078;SDS011;45951;45.824;8.824;2022-07-06T23:48:31;6.07;;;5.03;;
60078;SDS011;45951;45.824;8.824;2022-07-06T23:54:32;7.13;;;4.70;;
